createdAt,value
2018-12-16T00:01:31.844Z,28.33
2018-12-16T00:04:00.300Z,25.80
2018-12-16T00:06:28.732Z,25.77
2018-12-16T00:08:57.183Z,27.90
2018-12-16T00:11:25.611Z,24.57
2018-12-16T00:13:54.045Z,23.83
2018-12-16T00:16:22.502Z,26.43
2018-12-16T00:18:50.948Z,24.07
2018-12-16T00:21:19.404Z,27.30
2018-12-16T00:23:47.840Z,30.93
2018-12-16T00:26:16.293Z,28.47
2018-12-16T00:28:45.016Z,22.83
2018-12-16T00:31:13.553Z,27.33
2018-12-16T00:33:41.989Z,25.10
2018-12-16T00:36:10.437Z,27.47
2018-12-16T00:38:38.873Z,27.27
2018-12-16T00:41:07.332Z,23.60
2018-12-16T00:43:35.768Z,25.20
2018-12-16T00:46:04.273Z,27.13
2018-12-16T00:48:32.712Z,31.03
2018-12-16T00:51:01.160Z,25.67
2018-12-16T00:53:29.620Z,28.33
2018-12-16T00:55:58.065Z,25.72
2018-12-16T00:58:27.130Z,25.80
2018-12-16T01:00:55.601Z,25.50
2018-12-16T01:03:24.036Z,26.33
2018-12-16T01:05:52.494Z,23.53
2018-12-16T01:08:20.986Z,22.03
2018-12-16T01:10:50.169Z,26.33
2018-12-16T01:13:18.601Z,24.53
2018-12-16T01:15:47.124Z,22.27
2018-12-16T01:18:15.566Z,26.20
2018-12-16T01:20:44.024Z,25.90
2018-12-16T01:23:12.463Z,21.20
2018-12-16T01:25:40.911Z,25.27
2018-12-16T01:28:09.373Z,21.20
2018-12-16T01:30:37.847Z,24.40
2018-12-16T01:33:06.272Z,26.13
2018-12-16T01:35:34.740Z,21.43
2018-12-16T01:38:03.169Z,23.40
2018-12-16T01:40:31.631Z,24.27
2018-12-16T01:43:00.055Z,22.97
2018-12-16T01:45:28.504Z,23.40
2018-12-16T01:47:56.936Z,22.80
2018-12-16T01:50:25.385Z,22.20
2018-12-16T01:52:53.828Z,21.23
2018-12-16T01:55:22.291Z,21.90
2018-12-16T01:57:50.717Z,21.07
2018-12-16T02:00:20.016Z,24.10
2018-12-16T02:02:48.441Z,20.07
2018-12-16T02:05:16.895Z,22.53
2018-12-16T02:07:45.357Z,23.90
2018-12-16T02:10:13.916Z,22.37
2018-12-16T02:12:42.412Z,23.50
2018-12-16T02:15:11.076Z,19.97
2018-12-16T02:17:39.529Z,20.07
2018-12-16T02:20:07.975Z,20.10
2018-12-16T02:22:36.410Z,21.10
2018-12-16T02:25:06.546Z,21.17
2018-12-16T02:27:34.998Z,23.37
2018-12-16T02:30:03.589Z,23.53
2018-12-16T02:32:32.068Z,25.47
2018-12-16T02:35:00.498Z,21.30
2018-12-16T02:37:28.960Z,23.60
2018-12-16T02:39:58.061Z,17.80
2018-12-16T02:42:27.058Z,23.40
2018-12-16T02:44:55.487Z,25.47
2018-12-16T02:47:23.957Z,22.33
2018-12-16T02:49:52.405Z,22.90
2018-12-16T02:52:20.866Z,23.50
2018-12-16T02:54:49.315Z,19.67
2018-12-16T02:57:18.053Z,20.83
2018-12-16T02:59:46.479Z,22.23
2018-12-16T03:02:14.941Z,22.47
2018-12-16T03:04:43.402Z,22.90
2018-12-16T03:07:11.870Z,22.70
2018-12-16T03:09:40.314Z,20.90
2018-12-16T03:12:08.763Z,19.97
2018-12-16T03:14:37.192Z,20.00
2018-12-16T03:17:05.642Z,19.00
2018-12-16T03:19:34.125Z,21.80
2018-12-16T03:22:02.574Z,19.50
2018-12-16T03:24:31.001Z,21.70
2018-12-16T03:26:59.474Z,21.13
2018-12-16T03:29:27.931Z,21.70
2018-12-16T03:31:56.829Z,19.57
2018-12-16T03:34:25.514Z,21.30
2018-12-16T03:36:53.974Z,20.40
2018-12-16T03:39:22.414Z,20.83
2018-12-16T03:41:50.876Z,19.03
2018-12-16T03:44:19.934Z,23.43
2018-12-16T03:46:48.380Z,22.23
2018-12-16T03:49:16.812Z,24.60
2018-12-16T03:51:45.278Z,21.20
2018-12-16T03:54:13.708Z,22.57
2018-12-16T03:56:42.167Z,24.40
2018-12-16T03:59:15.937Z,20.03
2018-12-16T04:01:46.974Z,21.37
2018-12-16T04:04:15.413Z,22.90
2018-12-16T04:06:44.311Z,19.93
2018-12-16T04:09:12.827Z,21.57
2018-12-16T04:11:41.300Z,21.10
2018-12-16T04:14:09.724Z,23.43
2018-12-16T04:16:38.236Z,21.80
2018-12-16T04:19:06.781Z,22.03
2018-12-16T04:21:35.260Z,19.40
2018-12-16T04:24:03.685Z,22.67
2018-12-16T04:26:32.131Z,27.30
2018-12-16T04:29:00.558Z,23.70
2018-12-16T04:31:29.009Z,22.47
2018-12-16T04:33:57.444Z,23.33
2018-12-16T04:36:25.890Z,27.80
2018-12-16T04:38:54.311Z,24.03
2018-12-16T04:41:22.753Z,24.73
2018-12-16T04:43:51.253Z,24.57
2018-12-16T04:46:19.732Z,25.43
2018-12-16T04:48:48.157Z,25.47
2018-12-16T04:51:16.589Z,23.87
2018-12-16T04:53:45.033Z,23.40
2018-12-16T04:56:13.474Z,26.40
2018-12-16T04:58:41.914Z,27.57
2018-12-16T05:01:10.364Z,27.57
2018-12-16T05:03:38.833Z,24.53
2018-12-16T05:06:07.267Z,26.93
2018-12-16T05:08:35.723Z,27.63
2018-12-16T05:11:04.255Z,27.03
2018-12-16T05:13:33.331Z,25.33
2018-12-16T05:16:01.772Z,26.40
2018-12-16T05:18:30.237Z,29.67
2018-12-16T05:20:58.663Z,27.13
2018-12-16T05:23:27.104Z,31.73
2018-12-16T05:25:55.536Z,26.87
2018-12-16T05:28:23.994Z,31.43
2018-12-16T05:30:52.422Z,28.07
2018-12-16T05:33:20.877Z,27.73
2018-12-16T05:35:49.329Z,26.87
2018-12-16T05:38:17.801Z,28.93
2018-12-16T05:40:46.242Z,28.67
2018-12-16T05:43:14.694Z,32.10
2018-12-16T05:45:43.125Z,28.87
2018-12-16T05:48:11.565Z,32.90
2018-12-16T05:50:40.002Z,34.73
2018-12-16T05:53:08.452Z,34.17
2018-12-16T05:55:36.890Z,32.57
2018-12-16T05:58:05.368Z,34.70
2018-12-16T06:00:33.803Z,36.53
2018-12-16T06:03:02.274Z,37.50
2018-12-16T06:05:30.700Z,37.00
2018-12-16T06:07:59.357Z,36.30
2018-12-16T06:10:29.576Z,33.40
2018-12-16T06:12:58.018Z,32.67
2018-12-16T06:15:26.456Z,35.27
2018-12-16T06:17:54.908Z,40.97
2018-12-16T06:20:23.348Z,34.60
2018-12-16T06:22:51.819Z,34.67
2018-12-16T06:25:20.249Z,36.83
2018-12-16T06:27:48.708Z,35.97
2018-12-16T06:30:17.911Z,37.53
2018-12-16T06:32:46.357Z,37.50
2018-12-16T06:35:14.780Z,35.37
2018-12-16T06:37:43.237Z,40.73
2018-12-16T06:40:11.673Z,36.13
2018-12-16T06:42:40.124Z,35.37
2018-12-16T06:45:08.635Z,34.20
2018-12-16T06:47:37.100Z,34.70
2018-12-16T06:50:06.740Z,32.57
2018-12-16T06:52:35.211Z,34.43
2018-12-16T06:55:03.705Z,37.53
2018-12-16T06:57:32.151Z,32.90
2018-12-16T07:00:00.582Z,31.27
2018-12-16T07:02:29.012Z,37.33
2018-12-16T07:04:57.465Z,35.30
2018-12-16T07:07:25.902Z,35.13
2018-12-16T07:09:54.385Z,31.63
2018-12-16T07:12:22.824Z,34.87
2018-12-16T07:14:51.569Z,37.33
2018-12-16T07:17:20.012Z,30.47
2018-12-16T07:19:48.513Z,33.07
2018-12-16T07:22:17.180Z,33.83
2018-12-16T07:24:45.663Z,32.93
2018-12-16T07:27:14.142Z,32.27
2018-12-16T07:29:42.849Z,32.20
2018-12-16T07:32:11.316Z,32.03
2018-12-16T07:34:40.030Z,33.90
2018-12-16T07:37:08.461Z,31.57
2018-12-16T07:39:36.977Z,32.10
2018-12-16T07:42:05.435Z,37.97
2018-12-16T07:44:34.143Z,34.37
2018-12-16T07:47:02.606Z,36.93
2018-12-16T07:49:31.066Z,35.60
2018-12-16T07:51:59.756Z,37.97
2018-12-16T07:54:28.209Z,39.83
2018-12-16T07:56:56.655Z,35.57
2018-12-16T07:59:25.135Z,38.50
2018-12-16T08:01:53.563Z,37.03
2018-12-16T08:04:22.007Z,40.67
2018-12-16T08:06:50.445Z,39.63
2018-12-16T08:09:18.905Z,39.43
2018-12-16T08:11:47.342Z,38.00
2018-12-16T08:14:15.785Z,36.53
2018-12-16T08:16:44.226Z,40.43
2018-12-16T08:19:12.749Z,37.40
2018-12-16T08:21:41.183Z,40.40
2018-12-16T08:24:09.624Z,35.90
2018-12-16T08:26:38.064Z,39.40
2018-12-16T08:29:06.513Z,38.60
2018-12-16T08:31:34.950Z,39.90
2018-12-16T08:34:03.406Z,33.47
2018-12-16T08:36:31.841Z,39.53
2018-12-16T08:39:00.283Z,38.17
2018-12-16T08:41:28.700Z,38.67
2018-12-16T08:43:57.148Z,36.70
2018-12-16T08:46:25.586Z,36.93
2018-12-16T08:48:54.024Z,34.40
2018-12-16T08:51:22.456Z,31.73
2018-12-16T08:53:50.933Z,39.70
2018-12-16T08:56:19.380Z,34.07
2018-12-16T08:58:47.855Z,36.60
2018-12-16T09:01:16.284Z,36.90
2018-12-16T09:03:44.813Z,39.07
2018-12-16T09:06:13.240Z,32.63
2018-12-16T09:08:41.765Z,35.23
2018-12-16T09:11:10.205Z,33.20
2018-12-16T09:13:38.648Z,35.90
2018-12-16T09:16:07.076Z,35.13
2018-12-16T09:18:36.317Z,34.77
2018-12-16T09:21:04.833Z,33.80
2018-12-16T09:23:33.277Z,35.10
2018-12-16T09:26:01.741Z,42.37
2018-12-16T09:28:30.184Z,41.13
2018-12-16T09:30:58.626Z,36.30
2018-12-16T09:33:27.067Z,37.27
2018-12-16T09:35:55.526Z,38.07
2018-12-16T09:38:23.962Z,36.10
2018-12-16T09:40:52.408Z,37.50
2018-12-16T09:43:20.856Z,36.37
2018-12-16T09:45:49.608Z,40.77
2018-12-16T09:48:18.708Z,42.10
2018-12-16T09:50:47.234Z,37.77
2018-12-16T09:53:15.664Z,39.53
2018-12-16T09:55:44.100Z,34.40
2018-12-16T09:58:12.528Z,37.90
2018-12-16T10:00:40.965Z,36.60
2018-12-16T10:03:09.390Z,39.17
2018-12-16T10:05:37.857Z,35.93
2018-12-16T10:08:06.294Z,33.03
2018-12-16T10:10:34.746Z,35.27
2018-12-16T10:13:03.168Z,34.67
2018-12-16T10:15:31.612Z,39.47
2018-12-16T10:18:00.044Z,37.60
2018-12-16T10:20:28.499Z,35.63
2018-12-16T10:22:56.954Z,34.60
2018-12-16T10:25:25.396Z,37.07
2018-12-16T10:27:53.830Z,35.40
2018-12-16T10:30:22.298Z,37.23
2018-12-16T10:32:50.712Z,36.53
2018-12-16T10:35:19.158Z,33.50
2018-12-16T10:37:47.580Z,35.30
2018-12-16T10:40:16.030Z,36.07
2018-12-16T10:42:45.381Z,34.20
2018-12-16T10:45:13.880Z,33.07
2018-12-16T10:47:42.299Z,35.83
2018-12-16T10:50:11.267Z,35.23
2018-12-16T10:52:39.707Z,32.77
2018-12-16T10:55:08.263Z,32.60
2018-12-16T10:57:36.710Z,35.03
2018-12-16T11:00:09.548Z,31.67
2018-12-16T11:02:39.277Z,35.43
2018-12-16T11:05:07.780Z,36.13
2018-12-16T11:07:36.209Z,31.47
2018-12-16T11:10:04.800Z,37.10
2018-12-16T11:12:33.610Z,36.23
2018-12-16T11:15:02.050Z,38.80
2018-12-16T11:17:30.485Z,33.23
2018-12-16T11:19:58.924Z,33.80
2018-12-16T11:22:27.345Z,33.93
2018-12-16T11:24:55.784Z,34.87
2018-12-16T11:27:24.200Z,35.43
2018-12-16T11:29:52.650Z,32.83
2018-12-16T11:32:21.069Z,34.80
2018-12-16T11:34:49.500Z,38.43
2018-12-16T11:37:19.708Z,34.67
2018-12-16T11:39:48.204Z,31.20
2018-12-16T11:42:16.635Z,38.40
2018-12-16T11:44:45.064Z,33.50
2018-12-16T11:47:13.541Z,28.80
2018-12-16T11:49:41.973Z,35.37
2018-12-16T11:52:10.408Z,34.13
2018-12-16T11:54:38.832Z,35.20
2018-12-16T11:57:07.301Z,38.80
2018-12-16T11:59:35.729Z,34.73
2018-12-16T12:02:04.248Z,35.17
2018-12-16T12:04:33.417Z,37.40
2018-12-16T12:07:01.889Z,34.10
2018-12-16T12:09:30.329Z,40.20
2018-12-16T12:11:58.782Z,37.23
2018-12-16T12:14:27.339Z,33.20
2018-12-16T12:16:55.787Z,35.73
2018-12-16T12:19:24.235Z,36.50
2018-12-16T12:21:52.708Z,37.30
2018-12-16T12:24:21.140Z,32.40
2018-12-16T12:26:49.581Z,39.23
2018-12-16T12:29:18.013Z,34.17
2018-12-16T12:31:46.461Z,36.80
2018-12-16T12:34:15.528Z,32.23
2018-12-16T12:36:43.972Z,33.13
2018-12-16T12:39:12.397Z,32.83
2018-12-16T12:41:40.842Z,34.30
2018-12-16T12:44:09.275Z,36.67
2018-12-16T12:49:12.404Z,37.30
2018-12-16T12:51:40.865Z,34.37
2018-12-16T12:54:09.296Z,34.40
2018-12-16T12:56:37.779Z,37.03
2018-12-16T12:59:06.199Z,34.37
2018-12-16T13:01:34.640Z,35.20
2018-12-16T13:04:03.060Z,37.80
2018-12-16T13:06:31.557Z,35.53
2018-12-16T13:09:00.019Z,36.57
2018-12-16T13:11:28.711Z,37.30
2018-12-16T13:13:57.214Z,36.80
2018-12-16T13:16:25.882Z,37.03
2018-12-16T13:18:54.318Z,35.33
2018-12-16T13:21:23.118Z,37.30
2018-12-16T13:23:51.558Z,32.47
2018-12-16T13:26:20.168Z,32.23
2018-12-16T13:28:48.596Z,34.13
2018-12-16T13:31:17.033Z,33.83
2018-12-16T13:33:45.449Z,35.80
2018-12-16T13:36:13.913Z,35.50
2018-12-16T13:38:42.351Z,36.07
2018-12-16T13:41:10.920Z,35.20
2018-12-16T13:43:39.377Z,37.03
2018-12-16T13:46:07.806Z,37.87
2018-12-16T13:48:36.273Z,35.40
2018-12-16T13:51:04.701Z,39.03
2018-12-16T13:53:33.145Z,36.83
2018-12-16T13:56:01.577Z,34.77
2018-12-16T13:58:30.014Z,43.50
2018-12-16T14:00:58.496Z,39.57
2018-12-16T14:03:26.948Z,34.43
2018-12-16T14:05:55.460Z,37.77
2018-12-16T14:08:23.904Z,38.20
2018-12-16T14:10:52.325Z,36.33
2018-12-16T14:13:20.764Z,38.77
2018-12-16T14:15:52.309Z,43.43
2018-12-16T14:18:20.518Z,36.87
2018-12-16T14:20:48.945Z,39.10
2018-12-16T14:23:17.395Z,40.57
2018-12-16T14:25:48.148Z,39.37
2018-12-16T14:28:16.314Z,38.20
2018-12-16T14:30:44.739Z,41.73
2018-12-16T14:33:13.192Z,40.80
2018-12-16T14:35:41.612Z,39.07
2018-12-16T14:38:10.436Z,43.57
2018-12-16T14:40:38.858Z,42.20
2018-12-16T14:43:07.298Z,36.97
2018-12-16T14:45:35.830Z,40.93
2018-12-16T14:48:04.336Z,38.13
2018-12-16T14:50:32.756Z,37.93
2018-12-16T14:53:01.214Z,41.43
2018-12-16T14:55:29.631Z,42.90
2018-12-16T14:57:58.077Z,50.80
2018-12-16T15:00:26.561Z,43.20
2018-12-16T15:02:55.077Z,53.73
2018-12-16T15:05:23.502Z,47.27
2018-12-16T15:07:52.009Z,52.17
2018-12-16T15:10:20.437Z,54.70
2018-12-16T15:12:49.468Z,56.33
2018-12-16T15:15:18.689Z,49.67
2018-12-16T15:17:47.193Z,53.83
2018-12-16T15:20:15.621Z,46.87
2018-12-16T15:22:44.059Z,52.87
2018-12-16T15:25:12.480Z,51.40
2018-12-16T15:27:40.923Z,54.90
2018-12-16T15:30:10.274Z,58.03
2018-12-16T15:32:38.777Z,55.83
2018-12-16T15:35:07.468Z,55.87
2018-12-16T15:37:35.913Z,60.67
2018-12-16T15:40:06.411Z,52.27
2018-12-16T15:42:35.622Z,56.87
2018-12-16T15:45:05.461Z,59.07
2018-12-16T15:47:33.901Z,67.97
2018-12-16T15:50:02.324Z,61.27
2018-12-16T15:52:30.777Z,62.53
2018-12-16T15:54:59.215Z,57.10
2018-12-16T15:57:27.655Z,62.27
2018-12-16T15:59:56.089Z,63.23
2018-12-16T16:02:24.521Z,70.60
2018-12-16T16:04:52.964Z,62.63
2018-12-16T16:07:21.384Z,61.67
2018-12-16T16:09:49.827Z,61.67
2018-12-16T16:12:18.273Z,61.43
2018-12-16T16:14:47.753Z,66.17
2018-12-16T16:17:16.179Z,68.30
2018-12-16T16:19:44.827Z,67.67
2018-12-16T16:22:13.286Z,76.30
2018-12-16T16:24:41.730Z,72.60
2018-12-16T16:27:10.172Z,77.77
2018-12-16T16:29:38.625Z,77.97
2018-12-16T16:32:07.049Z,79.57
2018-12-16T16:34:35.502Z,76.57
2018-12-16T16:37:03.981Z,69.03
2018-12-16T16:39:32.412Z,67.83
2018-12-16T16:42:00.837Z,82.77
2018-12-16T16:44:29.280Z,87.40
2018-12-16T16:46:57.700Z,75.43
2018-12-16T16:49:26.158Z,79.57
2018-12-16T16:51:54.605Z,77.80
2018-12-16T16:54:23.047Z,96.23
2018-12-16T16:56:51.467Z,82.53
2018-12-16T16:59:20.287Z,87.53
2018-12-16T17:01:48.715Z,94.73
2018-12-16T17:04:17.429Z,91.13
2018-12-16T17:06:46.280Z,94.60
2018-12-16T17:09:14.729Z,93.23
2018-12-16T17:11:43.152Z,87.40
2018-12-16T17:14:11.617Z,81.70
2018-12-16T17:16:40.832Z,88.63
2018-12-16T17:19:09.958Z,94.30
2018-12-16T17:21:39.455Z,98.13
2018-12-16T17:24:07.906Z,101.07
2018-12-16T17:26:36.325Z,95.03
2018-12-16T17:29:04.769Z,106.07
2018-12-16T17:31:33.221Z,93.20
2018-12-16T17:34:01.761Z,106.50
2018-12-16T17:36:30.185Z,103.27
2018-12-16T17:38:58.638Z,103.27
2018-12-16T17:41:28.459Z,126.80
2018-12-16T17:43:56.921Z,118.57
2018-12-16T17:46:25.339Z,119.23
2018-12-16T17:48:53.826Z,115.63
2018-12-16T17:51:22.249Z,120.83
2018-12-16T17:53:50.693Z,122.03
2018-12-16T17:56:19.120Z,117.73
2018-12-16T17:58:47.577Z,119.10
2018-12-16T18:01:16.567Z,120.70
2018-12-16T18:03:45.016Z,122.73
2018-12-16T18:06:13.525Z,116.97
2018-12-16T18:08:42.382Z,135.30
2018-12-16T18:11:10.824Z,123.77
2018-12-16T18:13:39.251Z,136.00
2018-12-16T18:16:07.762Z,126.63
2018-12-16T18:18:36.212Z,123.87
2018-12-16T18:21:04.649Z,109.77
2018-12-16T18:23:33.930Z,126.53
2018-12-16T18:26:02.377Z,123.87
2018-12-16T18:28:30.815Z,117.33
2018-12-16T18:30:59.268Z,126.63
2018-12-16T18:33:27.781Z,120.43
2018-12-16T18:35:56.259Z,113.60
2018-12-16T18:38:24.687Z,138.10
2018-12-16T18:40:53.136Z,127.93
2018-12-16T18:43:21.567Z,122.30
2018-12-16T18:45:50.017Z,120.33
2018-12-16T18:48:18.444Z,110.80
2018-12-16T18:50:46.889Z,109.43
2018-12-16T18:53:15.320Z,146.60
2018-12-16T18:55:43.773Z,135.33
2018-12-16T18:58:12.216Z,113.60
2018-12-16T19:00:41.896Z,125.80
2018-12-16T19:03:10.317Z,125.87
2018-12-16T19:05:38.764Z,116.73
2018-12-16T19:08:07.201Z,128.00
2018-12-16T19:10:35.665Z,117.73
2018-12-16T19:13:04.499Z,136.80
2018-12-16T19:15:32.947Z,126.43
2018-12-16T19:18:01.368Z,126.70
2018-12-16T19:23:12.943Z,135.80
2018-12-16T19:25:42.272Z,140.13
2018-12-16T19:28:11.093Z,150.13
2018-12-16T19:30:39.547Z,134.13
2018-12-16T19:33:07.973Z,120.57
2018-12-16T19:35:36.430Z,128.53
2018-12-16T19:38:04.936Z,134.03
2018-12-16T19:40:33.381Z,157.00
2018-12-16T19:43:01.812Z,155.13
2018-12-16T19:45:30.259Z,141.93
2018-12-16T19:47:58.688Z,126.57
2018-12-16T19:50:27.128Z,140.20
2018-12-16T19:52:55.592Z,125.90
2018-12-16T19:55:24.313Z,129.83
2018-12-16T19:57:52.737Z,125.10
2018-12-16T20:00:21.179Z,127.63
2018-12-16T20:02:49.613Z,136.60
2018-12-16T20:05:21.209Z,131.97
2018-12-16T20:07:49.704Z,137.77
2018-12-16T20:10:18.208Z,125.60
2018-12-16T20:12:46.701Z,108.10
2018-12-16T20:15:15.157Z,128.37
2018-12-16T20:17:43.592Z,124.73
2018-12-16T20:20:12.096Z,110.03
2018-12-16T20:22:40.519Z,128.83
2018-12-16T20:25:09.120Z,132.13
2018-12-16T20:27:37.579Z,128.77
2018-12-16T20:30:07.676Z,113.27
2018-12-16T20:32:36.111Z,126.93
2018-12-16T20:35:05.681Z,125.97
2018-12-16T20:37:34.720Z,122.50
2018-12-16T20:40:03.466Z,106.60
2018-12-16T20:42:31.929Z,120.43
2018-12-16T20:45:00.361Z,118.70
2018-12-16T20:47:28.826Z,107.87
2018-12-16T20:49:57.279Z,113.73
2018-12-16T20:52:25.749Z,130.50
2018-12-16T20:54:54.184Z,134.03
2018-12-16T20:57:22.629Z,115.40
2018-12-16T20:59:51.044Z,115.23
2018-12-16T21:02:19.494Z,119.33
2018-12-16T21:04:47.927Z,107.33
2018-12-16T21:07:16.384Z,116.83
2018-12-16T21:09:44.824Z,124.63
2018-12-16T21:12:18.786Z,102.13
2018-12-16T21:14:52.684Z,120.93
2018-12-16T21:17:26.459Z,110.13
2018-12-16T21:19:55.837Z,107.73
2018-12-16T21:22:24.278Z,98.83
2018-12-16T21:24:52.702Z,105.27
2018-12-16T21:27:26.010Z,106.30
2018-12-16T21:29:51.756Z,100.77
2018-12-16T21:32:20.220Z,107.83
2018-12-16T21:34:48.640Z,98.33
2018-12-16T21:37:17.096Z,87.40
2018-12-16T21:39:45.528Z,83.50
2018-12-16T21:42:13.989Z,81.10
2018-12-16T21:44:42.412Z,87.37
2018-12-16T21:47:10.856Z,84.73
2018-12-16T21:49:39.284Z,82.67
2018-12-16T21:52:07.767Z,105.07
2018-12-16T21:54:36.201Z,85.90
2018-12-16T21:57:04.640Z,89.13
2018-12-16T21:59:33.142Z,84.27
2018-12-16T22:02:01.565Z,84.90
2018-12-16T22:04:30.012Z,73.87
2018-12-16T22:06:58.461Z,84.43
2018-12-16T22:09:26.885Z,71.97
2018-12-16T22:11:55.338Z,65.83
2018-12-16T22:14:23.794Z,70.97
2018-12-16T22:16:52.243Z,75.73
2018-12-16T22:19:20.689Z,73.43
2018-12-16T22:21:49.115Z,75.50
2018-12-16T22:24:17.565Z,74.80
2018-12-16T22:26:46.094Z,68.97
2018-12-16T22:29:14.558Z,71.07
2018-12-16T22:31:42.981Z,70.63
2018-12-16T22:34:11.434Z,66.20
2018-12-16T22:36:39.861Z,67.03
2018-12-16T22:39:08.365Z,68.57
2018-12-16T22:41:36.796Z,64.30
2018-12-16T22:44:05.489Z,65.00
2018-12-16T22:46:34.112Z,61.87
2018-12-16T22:49:02.597Z,66.70
2018-12-16T22:51:31.462Z,62.83
2018-12-16T22:53:59.900Z,67.83
2018-12-16T22:56:28.341Z,64.93
2018-12-16T22:58:56.800Z,68.10
2018-12-16T23:01:25.281Z,61.30
2018-12-16T23:03:53.729Z,72.27
2018-12-16T23:06:22.158Z,68.17
2018-12-16T23:08:50.622Z,70.93
2018-12-16T23:11:19.320Z,71.13
2018-12-16T23:13:47.743Z,61.23
2018-12-16T23:16:16.203Z,70.67
2018-12-16T23:18:44.908Z,73.13
2018-12-16T23:21:13.431Z,80.73
2018-12-16T23:23:41.870Z,79.00
2018-12-16T23:26:10.310Z,70.13
2018-12-16T23:28:38.742Z,80.23
2018-12-16T23:31:07.180Z,82.83
2018-12-16T23:33:36.552Z,79.27
2018-12-16T23:36:05.053Z,86.97
2018-12-16T23:38:33.489Z,83.50
2018-12-16T23:41:01.929Z,73.47
2018-12-16T23:43:30.361Z,88.07
2018-12-16T23:45:58.814Z,76.93
2018-12-16T23:48:27.238Z,78.87
2018-12-16T23:50:55.706Z,89.73
2018-12-16T23:53:24.142Z,87.10
2018-12-16T23:55:52.593Z,82.47
2018-12-16T23:58:21.020Z,89.37
